Terminal Aerodrome Forecast
Issued by NWS Binghamton, NY

Home | Current Version | Previous Version | Text Only | Print | Product List | Glossary On
Versions: 1 2 3 4 5 6 7 8 9 10 11 12 13 14 15 16 17 18 19 20 21 22 23 24 25 26
635
FTUS41 KBGM 290241 AAB
TAFAVP
TAF AMD
KAVP 290241Z 2903/2924 VRB03KT P6SM -SHRA OVC050
      TEMPO 2905/2907 BKN025
     FM290700 VRB03KT P6SM -SHRA OVC025
      TEMPO 2910/2914 OVC015
     FM291500 04004KT P6SM -SHRA OVC025
     FM291800 08005KT P6SM -SHRA SCT025 OVC035=

USA.gov is the U.S. government's official web portal to all federal, state and local government web resources and services.